createdAt,value
2023-04-22T00:04:46.173Z,96141.06
2023-04-22T00:09:38.630Z,96140.59
2023-04-22T00:14:30.734Z,96140.38
2023-04-22T00:19:23.122Z,96137.22
2023-04-22T00:24:14.793Z,96135.63
2023-04-22T00:29:06.573Z,96146.47
2023-04-22T00:33:58.687Z,96141.03
2023-04-22T00:38:53.067Z,96140.81
2023-04-22T00:43:45.368Z,96129.34
2023-04-22T00:48:38.611Z,96133.47
2023-04-22T00:53:30.384Z,96131.19
2023-04-22T00:58:27.489Z,96131.41
2023-04-22T01:03:20.543Z,96140.66
2023-04-22T01:08:12.902Z,96128.31
2023-04-22T01:13:04.622Z,96130.97
2023-04-22T01:17:56.985Z,96137.44
2023-04-22T01:22:50.734Z,96133.59
2023-04-22T01:27:42.926Z,96131.44
2023-04-22T01:32:34.797Z,96141.78
2023-04-22T01:37:27.065Z,96137.16
2023-04-22T01:42:19.740Z,96129.19
2023-04-22T01:47:12.418Z,96125.56
2023-04-22T01:52:04.270Z,96127.03
2023-04-22T01:56:58.337Z,96127.28
2023-04-22T02:01:50.418Z,96137.84
2023-04-22T02:06:42.182Z,96129.78
2023-04-22T02:11:33.870Z,96121.25
2023-04-22T02:16:25.623Z,96118.19
2023-04-22T02:21:24.994Z,96123.06
2023-04-22T02:26:16.667Z,96122.50
2023-04-22T02:31:08.479Z,96118.31
2023-04-22T02:36:00.177Z,96126.16
2023-04-22T02:40:51.846Z,96114.78
2023-04-22T02:45:43.522Z,96121.03
2023-04-22T02:50:35.692Z,96120.78
2023-04-22T02:55:27.553Z,96122.72
2023-04-22T03:00:19.291Z,96121.00
2023-04-22T03:05:11.419Z,96112.59
2023-04-22T03:10:03.934Z,96119.72
2023-04-22T03:14:55.933Z,96114.56
2023-04-22T03:19:47.717Z,96120.38
2023-04-22T03:24:39.454Z,96126.94
2023-04-22T03:29:31.345Z,96121.59
2023-04-22T03:34:23.278Z,96120.47
2023-04-22T03:39:14.956Z,96122.50
2023-04-22T03:44:06.693Z,96123.63
2023-04-22T03:48:58.352Z,96116.91
2023-04-22T03:53:50.222Z,96120.59
2023-04-22T03:58:41.888Z,96116.31
2023-04-22T04:03:34.066Z,96137.31
2023-04-22T04:08:26.696Z,96144.28
2023-04-22T04:13:18.495Z,96139.63
2023-04-22T04:18:11.493Z,96154.69
2023-04-22T04:23:03.223Z,96156.78
2023-04-22T04:27:55.326Z,96153.22
2023-04-22T04:32:47.177Z,96157.56
2023-04-22T04:37:40.268Z,96152.56
2023-04-22T04:42:33.466Z,96144.94
2023-04-22T04:47:25.404Z,96136.53
2023-04-22T04:52:17.107Z,96149.25
2023-04-22T04:57:10.036Z,96146.34
2023-04-22T05:02:01.786Z,96140.72
2023-04-22T05:06:53.899Z,96144.44
2023-04-22T05:11:45.601Z,96149.44
2023-04-22T05:16:37.493Z,96154.22
2023-04-22T05:21:29.204Z,96154.56
2023-04-22T05:26:21.162Z,96147.63
2023-04-22T05:31:13.002Z,96163.81
2023-04-22T05:41:21.916Z,96206.84
2023-04-22T05:46:13.823Z,96219.06
2023-04-22T05:51:05.732Z,96214.19
2023-04-22T05:55:57.694Z,96226.13
2023-04-22T06:00:49.638Z,96214.41
2023-04-22T06:05:42.268Z,96224.19
2023-04-22T06:10:34.011Z,96229.63
2023-04-22T06:15:26.484Z,96227.19
2023-04-22T06:20:18.228Z,96226.13
2023-04-22T06:25:10.338Z,96219.13
2023-04-22T06:30:02.282Z,96219.56
2023-04-22T06:34:54.745Z,96222.28
2023-04-22T06:39:46.500Z,96224.97
2023-04-22T06:44:38.667Z,96225.19
2023-04-22T06:49:30.338Z,96245.53
2023-04-22T06:54:22.179Z,96269.25
2023-04-22T06:59:14.058Z,96265.88
2023-04-22T07:04:07.428Z,96270.47
2023-04-22T07:08:59.178Z,96267.44
2023-04-22T07:13:50.851Z,96250.75
2023-04-22T07:18:42.564Z,96278.25
2023-04-22T07:23:34.276Z,96275.41
2023-04-22T07:28:26.097Z,96285.50
2023-04-22T07:33:17.810Z,96272.34
2023-04-22T07:38:10.103Z,96278.72
2023-04-22T07:43:02.976Z,96280.03
2023-04-22T07:47:54.797Z,96278.72
2023-04-22T07:52:46.482Z,96269.88
2023-04-22T07:57:39.736Z,96272.25
2023-04-22T08:02:31.502Z,96270.25
2023-04-22T08:12:18.377Z,96255.03
2023-04-22T08:17:10.243Z,96266.66
2023-04-22T08:22:02.071Z,96277.47
2023-04-22T08:26:54.665Z,96260.06
2023-04-22T08:31:46.551Z,96250.84
2023-04-22T08:36:38.922Z,96252.06
2023-04-22T08:41:35.219Z,96255.41
2023-04-22T08:46:28.925Z,96245.03
2023-04-22T08:51:22.229Z,96264.50
2023-04-22T08:56:14.439Z,96263.63
2023-04-22T09:01:08.404Z,96255.31
2023-04-22T09:06:04.181Z,96248.00
2023-04-22T09:10:55.888Z,96238.31
2023-04-22T09:15:48.088Z,96232.88
2023-04-22T09:20:42.468Z,96230.00
2023-04-22T09:25:37.434Z,96235.47
2023-04-22T09:30:36.484Z,96236.97
2023-04-22T09:35:32.752Z,96237.41
2023-04-22T09:40:26.048Z,96232.66
2023-04-22T09:45:34.928Z,96226.47
2023-04-22T09:50:28.708Z,96216.91
2023-04-22T09:55:26.295Z,96217.84
2023-04-22T10:00:18.621Z,96214.75
2023-04-22T10:05:12.808Z,96206.88
2023-04-22T10:15:11.655Z,96211.44
2023-04-22T10:20:13.785Z,96199.06
2023-04-22T10:25:06.089Z,96203.09
2023-04-22T10:29:57.836Z,96188.31
2023-04-22T10:34:51.777Z,96198.03
2023-04-22T10:40:16.325Z,96183.47
2023-04-22T10:45:15.373Z,96186.59
2023-04-22T10:50:20.573Z,96183.28
2023-04-22T10:55:12.363Z,96182.81
2023-04-22T11:00:52.548Z,96175.81
2023-04-22T11:05:45.622Z,96183.50
2023-04-22T11:10:46.279Z,96178.88
2023-04-22T11:15:41.485Z,96176.00
2023-04-22T11:20:33.388Z,96186.66
2023-04-22T11:25:26.925Z,96182.03
2023-04-22T11:30:24.147Z,96178.09
2023-04-22T11:35:20.645Z,96182.22
2023-04-22T11:40:30.214Z,96167.03
2023-04-22T11:45:25.410Z,96169.97
2023-04-22T11:50:22.156Z,96161.31
2023-04-22T11:55:22.011Z,96154.38
2023-04-22T12:00:17.419Z,96157.00
2023-04-22T12:05:12.719Z,96155.75
2023-04-22T12:10:07.716Z,96152.06
2023-04-22T12:15:13.669Z,96153.53
2023-04-22T12:30:24.869Z,96155.34
2023-04-22T12:35:17.463Z,96161.16
2023-04-22T12:40:10.214Z,96171.97
2023-04-22T12:45:03.327Z,96177.69
2023-04-22T12:50:02.988Z,96174.81
2023-04-22T12:54:54.685Z,96174.88
2023-04-22T13:04:53.067Z,96171.03
2023-04-22T13:09:45.399Z,96169.50
2023-04-22T13:14:37.141Z,96165.66
2023-04-22T13:19:29.544Z,96177.13
2023-04-22T13:24:21.328Z,96156.72
2023-04-22T13:29:14.248Z,96158.34
2023-04-22T13:34:06.247Z,96142.56
2023-04-22T13:38:57.953Z,96146.44
2023-04-22T13:43:54.229Z,96124.03
2023-04-22T13:48:53.733Z,96132.69
2023-04-22T13:53:48.104Z,96118.25
2023-04-22T13:58:49.955Z,96125.63
2023-04-22T14:03:41.958Z,96116.72
2023-04-22T14:08:33.735Z,96118.16
2023-04-22T14:13:29.315Z,96111.91
2023-04-22T14:18:24.429Z,96124.38
2023-04-22T14:23:16.388Z,96115.84
2023-04-22T14:28:08.224Z,96122.94
2023-04-22T14:33:00.454Z,96119.91
2023-04-22T14:37:52.822Z,96123.09
2023-04-22T14:42:44.589Z,96135.00
2023-04-22T14:47:36.296Z,96132.59
2023-04-22T14:52:28.044Z,96139.63
2023-04-22T14:57:19.782Z,96138.41
2023-04-22T15:02:17.143Z,96139.81
2023-04-22T15:07:09.988Z,96150.25
2023-04-22T15:12:04.901Z,96160.44
2023-04-22T15:16:57.282Z,96175.00
2023-04-22T15:21:48.999Z,96183.66
2023-04-22T15:26:40.916Z,96195.47
2023-04-22T15:36:38.583Z,96188.31
2023-04-22T15:41:30.325Z,96189.63
2023-04-22T15:46:22.755Z,96191.31
2023-04-22T15:51:19.240Z,96193.78
2023-04-22T15:56:16.724Z,96195.25
2023-04-22T16:01:18.755Z,96200.72
2023-04-22T16:06:11.374Z,96203.31
2023-04-22T16:11:03.827Z,96202.41
2023-04-22T16:15:57.081Z,96212.84
2023-04-22T16:20:49.998Z,96219.50
2023-04-22T16:25:42.533Z,96210.31
2023-04-22T16:30:34.321Z,96193.75
2023-04-22T16:45:40.164Z,96198.63
2023-04-22T17:01:08.772Z,96175.75
2023-04-22T17:06:00.469Z,96173.97
2023-04-22T17:10:52.527Z,96173.28
2023-04-22T17:15:44.692Z,96165.72
2023-04-22T17:20:37.454Z,96179.88
2023-04-22T17:25:30.271Z,96178.44
2023-04-22T17:30:22.002Z,96165.97
2023-04-22T17:35:14.000Z,96161.53
2023-04-22T17:40:08.516Z,96161.53
2023-04-22T17:50:06.934Z,96169.75
2023-04-22T17:54:59.931Z,96176.94
2023-04-22T17:59:51.761Z,96183.91
2023-04-22T18:04:43.644Z,96187.63
2023-04-22T18:09:36.772Z,96197.72
2023-04-22T18:14:29.852Z,96198.25
2023-04-22T18:19:23.262Z,96203.84
2023-04-22T18:24:15.042Z,96211.00
2023-04-22T18:29:08.586Z,96207.56
2023-04-22T18:34:00.572Z,96214.78
2023-04-22T18:38:52.253Z,96215.59
2023-04-22T18:43:44.047Z,96219.81
2023-04-22T18:48:37.633Z,96227.75
2023-04-22T18:53:29.468Z,96220.13
2023-04-22T18:58:23.111Z,96208.47
2023-04-22T19:03:16.969Z,96206.13
2023-04-22T19:08:08.953Z,96210.63
2023-04-22T19:13:00.715Z,96212.50
2023-04-22T19:17:52.480Z,96216.47
2023-04-22T19:22:44.551Z,96209.09
2023-04-22T19:27:36.308Z,96205.38
2023-04-22T19:32:28.793Z,96217.25
2023-04-22T19:37:21.833Z,96223.31
2023-04-22T19:42:13.522Z,96215.94
2023-04-22T19:47:05.429Z,96217.81
2023-04-22T19:51:58.235Z,96210.16
2023-04-22T20:01:58.022Z,96209.63
2023-04-22T20:06:52.568Z,96210.97
2023-04-22T20:11:45.267Z,96219.66
2023-04-22T20:16:38.324Z,96205.91
2023-04-22T20:21:35.706Z,96209.06
2023-04-22T20:36:45.618Z,96209.88
2023-04-22T20:41:39.996Z,96221.72
2023-04-22T20:46:32.055Z,96222.25
2023-04-22T20:51:24.066Z,96222.25
2023-04-22T21:02:33.202Z,96221.22
2023-04-22T21:07:38.348Z,96220.13
2023-04-22T21:17:54.654Z,96225.13
2023-04-22T21:22:47.047Z,96230.13
2023-04-22T21:27:39.412Z,96225.13
2023-04-22T21:37:40.645Z,96235.38
2023-04-22T21:42:40.307Z,96220.34
2023-04-22T21:47:32.107Z,96213.78
2023-04-22T21:52:23.976Z,96213.25
2023-04-22T21:57:16.093Z,96227.69
2023-04-22T22:02:08.372Z,96217.91
2023-04-22T22:07:01.194Z,96206.03
2023-04-22T22:22:04.817Z,96213.81
2023-04-22T22:27:01.793Z,96221.19
2023-04-22T22:31:53.641Z,96217.75
2023-04-22T22:37:00.255Z,96224.56
2023-04-22T22:47:12.615Z,96226.44
2023-04-22T22:57:12.964Z,96221.63
2023-04-22T23:02:06.140Z,96229.78
2023-04-22T23:12:05.513Z,96228.94
2023-04-22T23:16:58.589Z,96234.97
2023-04-22T23:27:04.930Z,96227.34
2023-04-22T23:37:16.579Z,96231.22
2023-04-22T23:42:08.847Z,96222.78
2023-04-22T23:47:01.052Z,96223.28
2023-04-22T23:51:53.697Z,96229.34
